createdAt,value
2023-08-17T00:04:50.581Z,22.40
2023-08-17T00:14:53.030Z,22.30
2023-08-17T00:24:54.893Z,22.20
2023-08-17T00:34:57.067Z,22.00
2023-08-17T00:44:58.945Z,22.00
2023-08-17T00:55:03.764Z,21.80
2023-08-17T01:05:05.957Z,21.70
2023-08-17T01:15:28.727Z,21.70
2023-08-17T01:25:33.388Z,21.40
2023-08-17T01:35:55.767Z,21.40
2023-08-17T01:45:57.765Z,21.30
2023-08-17T01:55:59.721Z,21.30
2023-08-17T02:06:01.820Z,21.30
2023-08-17T02:16:06.485Z,21.20
2023-08-17T02:26:08.389Z,21.10
2023-08-17T02:36:10.308Z,21.10
2023-08-17T02:46:12.240Z,20.90
2023-08-17T02:56:14.773Z,20.80
2023-08-17T03:06:16.956Z,20.90
2023-08-17T03:16:18.920Z,21.00
2023-08-17T03:26:20.852Z,20.70
2023-08-17T03:36:22.880Z,20.50
2023-08-17T03:46:25.154Z,20.40
2023-08-17T03:56:27.247Z,20.30
2023-08-17T04:06:29.180Z,20.20
2023-08-17T04:16:31.456Z,20.30
2023-08-17T04:26:35.396Z,20.20
2023-08-17T04:36:37.424Z,20.40
2023-08-17T04:46:41.044Z,20.60
2023-08-17T04:56:43.759Z,20.50
2023-08-17T05:06:45.765Z,20.70
2023-08-17T05:16:47.940Z,20.90
2023-08-17T05:26:50.153Z,21.00
2023-08-17T05:36:52.083Z,20.90
2023-08-17T05:46:54.502Z,21.10
2023-08-17T05:56:56.443Z,21.80
2023-08-17T06:06:58.286Z,22.20
2023-08-17T06:17:00.199Z,22.00
2023-08-17T06:27:02.185Z,21.50
2023-08-17T06:37:04.818Z,21.70
2023-08-17T06:47:07.057Z,21.60
2023-08-17T06:57:09.202Z,22.20
2023-08-17T07:07:11.069Z,24.10
2023-08-17T07:17:13.004Z,25.10
2023-08-17T07:27:14.921Z,24.30
2023-08-17T07:37:16.811Z,25.50
2023-08-17T07:47:18.713Z,26.10
2023-08-17T07:57:25.794Z,26.10
2023-08-17T08:07:28.884Z,27.40
2023-08-17T08:17:31.822Z,27.10
2023-08-17T08:27:47.386Z,28.10
2023-08-17T08:37:49.986Z,27.10
2023-08-17T08:47:53.347Z,27.70
2023-08-17T08:57:56.813Z,29.60
2023-08-17T09:08:03.449Z,30.00
2023-08-17T09:18:07.178Z,29.30
2023-08-17T09:28:19.875Z,28.60
2023-08-17T09:38:22.084Z,30.70
2023-08-17T09:48:26.812Z,28.90
2023-08-17T09:58:31.586Z,28.80
2023-08-17T10:08:41.095Z,31.20
2023-08-17T10:19:11.956Z,29.60
2023-08-17T10:29:17.592Z,29.80
2023-08-17T10:39:21.289Z,29.90
2023-08-17T10:49:27.995Z,30.60
2023-08-17T10:59:30.106Z,30.40
2023-08-17T11:09:32.481Z,30.40
2023-08-17T11:19:34.456Z,30.00
2023-08-17T11:29:36.717Z,30.00
2023-08-17T11:39:38.717Z,29.70
2023-08-17T11:49:41.468Z,29.50
2023-08-17T11:59:44.766Z,29.10
2023-08-17T12:09:54.468Z,22.90
2023-08-17T12:20:01.772Z,23.30
2023-08-17T12:30:04.071Z,23.30
2023-08-17T12:40:06.436Z,22.80
2023-08-17T12:50:18.714Z,22.70
2023-08-17T13:00:24.663Z,22.80
2023-08-17T13:10:26.678Z,22.50
2023-08-17T13:20:29.073Z,22.50
2023-08-17T13:30:31.031Z,22.40
2023-08-17T13:40:33.377Z,22.40
2023-08-17T13:50:38.546Z,22.20
2023-08-17T14:00:40.451Z,22.00
2023-08-17T14:10:42.472Z,21.90
2023-08-17T14:20:44.399Z,22.10
2023-08-17T14:30:52.598Z,21.90
2023-08-17T14:40:54.587Z,22.10
2023-08-17T14:50:56.810Z,22.30
2023-08-17T15:00:58.780Z,22.30
2023-08-17T15:11:02.382Z,22.20
2023-08-17T15:21:04.621Z,22.30
2023-08-17T15:31:06.581Z,22.50
2023-08-17T15:41:08.558Z,22.40
2023-08-17T15:51:10.495Z,22.50
2023-08-17T16:01:12.565Z,22.30
2023-08-17T16:11:14.490Z,21.80
2023-08-17T16:21:16.348Z,21.80
2023-08-17T16:31:18.388Z,21.70
2023-08-17T16:41:20.447Z,21.80
2023-08-17T16:51:22.442Z,21.50
2023-08-17T17:01:25.058Z,21.60
2023-08-17T17:11:27.500Z,21.50
2023-08-17T17:21:29.488Z,21.50
2023-08-17T17:31:31.728Z,21.60
2023-08-17T17:41:33.539Z,21.40
2023-08-17T17:51:37.281Z,21.30
2023-08-17T18:01:39.430Z,21.20
2023-08-17T18:11:42.309Z,21.10
2023-08-17T18:21:44.284Z,21.00
2023-08-17T18:31:46.478Z,20.90
2023-08-17T18:41:48.681Z,20.80
2023-08-17T18:51:51.004Z,20.70
2023-08-17T19:01:53.655Z,20.70
2023-08-17T19:11:55.632Z,20.70
2023-08-17T19:21:57.566Z,20.40
2023-08-17T19:31:59.650Z,20.20
2023-08-17T19:42:03.092Z,20.40
2023-08-17T19:52:05.452Z,20.40
2023-08-17T20:02:07.432Z,20.30
2023-08-17T20:12:09.390Z,20.30
2023-08-17T20:22:11.739Z,20.30
2023-08-17T20:32:13.628Z,20.30
2023-08-17T20:42:15.456Z,19.90
2023-08-17T20:52:17.421Z,19.80
2023-08-17T21:02:19.294Z,19.90
2023-08-17T21:12:21.206Z,19.90
2023-08-17T21:22:23.216Z,19.80
2023-08-17T21:32:25.171Z,19.90
2023-08-17T21:42:27.027Z,19.80
2023-08-17T21:52:28.943Z,19.80
2023-08-17T22:02:31.461Z,19.70
2023-08-17T22:12:33.355Z,19.60
2023-08-17T22:22:35.270Z,19.50
2023-08-17T22:32:37.178Z,19.30
2023-08-17T22:42:39.059Z,19.20
2023-08-17T22:52:40.972Z,18.90
2023-08-17T23:02:43.297Z,19.00
2023-08-17T23:12:45.283Z,18.90
2023-08-17T23:22:47.162Z,18.90
2023-08-17T23:32:49.163Z,18.80
2023-08-17T23:42:51.165Z,18.80
2023-08-17T23:52:53.062Z,18.50
